sensor_id;sensor_type;location;lat;lon;timestamp;temperature;humidity
2439;DHT22;14509;47.992;7.848;2022-12-29T00:01:21;18.40;34.90
2439;DHT22;14509;47.992;7.848;2022-12-29T00:03:23;18.30;34.90
2439;DHT22;14509;47.992;7.848;2022-12-29T00:05:25;18.30;34.90
2439;DHT22;14509;47.992;7.848;2022-12-29T00:07:31;18.30;34.80
2439;DHT22;14509;47.992;7.848;2022-12-29T00:09:33;18.30;34.80
2439;DHT22;14509;47.992;7.848;2022-12-29T00:11:38;19.00;35.40
2439;DHT22;14509;47.992;7.848;2022-12-29T00:13:40;18.20;34.80
2439;DHT22;14509;47.992;7.848;2022-12-29T00:16:07;18.30;35.10
2439;DHT22;14509;47.992;7.848;2022-12-29T00:18:12;18.30;34.70
2439;DHT22;14509;47.992;7.848;2022-12-29T00:20:17;18.10;34.50
2439;DHT22;14509;47.992;7.848;2022-12-29T00:22:38;18.20;34.90
2439;DHT22;14509;47.992;7.848;2022-12-29T00:24:59;18.30;34.70
2439;DHT22;14509;47.992;7.848;2022-12-29T00:27:18;18.30;34.60
2439;DHT22;14509;47.992;7.848;2022-12-29T00:29:38;18.40;34.70
2439;DHT22;14509;47.992;7.848;2022-12-29T00:31:57;18.40;34.40
2439;DHT22;14509;47.992;7.848;2022-12-29T00:34:17;18.40;34.00
2439;DHT22;14509;47.992;7.848;2022-12-29T00:36:39;18.30;33.60
2439;DHT22;14509;47.992;7.848;2022-12-29T00:38:46;18.30;33.60
2439;DHT22;14509;47.992;7.848;2022-12-29T00:41:06;18.70;34.00
2439;DHT22;14509;47.992;7.848;2022-12-29T00:43:26;18.20;33.90
2439;DHT22;14509;47.992;7.848;2022-12-29T00:45:45;18.20;33.60
2439;DHT22;14509;47.992;7.848;2022-12-29T00:47:47;18.20;33.60
2439;DHT22;14509;47.992;7.848;2022-12-29T00:49:49;18.30;33.40
2439;DHT22;14509;47.992;7.848;2022-12-29T00:51:51;18.50;33.30
2439;DHT22;14509;47.992;7.848;2022-12-29T00:53:55;18.50;33.10
2439;DHT22;14509;47.992;7.848;2022-12-29T00:55:57;18.50;33.00
2439;DHT22;14509;47.992;7.848;2022-12-29T00:58:01;18.50;33.60
2439;DHT22;14509;47.992;7.848;2022-12-29T01:00:03;18.50;32.80
2439;DHT22;14509;47.992;7.848;2022-12-29T01:02:05;18.50;33.00
2439;DHT22;14509;47.992;7.848;2022-12-29T01:04:08;18.50;33.00
2439;DHT22;14509;47.992;7.848;2022-12-29T01:06:11;18.50;33.00
2439;DHT22;14509;47.992;7.848;2022-12-29T01:08:13;18.50;33.10
2439;DHT22;14509;47.992;7.848;2022-12-29T01:10:16;18.50;33.10
2439;DHT22;14509;47.992;7.848;2022-12-29T01:12:17;18.50;33.10
2439;DHT22;14509;47.992;7.848;2022-12-29T01:14:40;18.70;33.50
2439;DHT22;14509;47.992;7.848;2022-12-29T01:16:42;18.60;33.10
2439;DHT22;14509;47.992;7.848;2022-12-29T01:18:44;19.10;33.60
2439;DHT22;14509;47.992;7.848;2022-12-29T01:20:46;18.60;33.30
2439;DHT22;14509;47.992;7.848;2022-12-29T01:22:48;18.90;33.60
2439;DHT22;14509;47.992;7.848;2022-12-29T01:24:54;18.60;33.70
2439;DHT22;14509;47.992;7.848;2022-12-29T01:26:57;18.60;34.00
2439;DHT22;14509;47.992;7.848;2022-12-29T01:28:59;18.60;34.20
2439;DHT22;14509;47.992;7.848;2022-12-29T01:31:01;18.50;34.20
2439;DHT22;14509;47.992;7.848;2022-12-29T01:33:03;18.50;34.40
2439;DHT22;14509;47.992;7.848;2022-12-29T01:35:06;18.40;34.40
2439;DHT22;14509;47.992;7.848;2022-12-29T01:37:09;18.40;34.70
2439;DHT22;14509;47.992;7.848;2022-12-29T01:39:11;18.30;34.70
2439;DHT22;14509;47.992;7.848;2022-12-29T01:41:14;18.30;34.80
2439;DHT22;14509;47.992;7.848;2022-12-29T01:43:18;18.30;34.90
2439;DHT22;14509;47.992;7.848;2022-12-29T01:45:20;18.30;34.80
2439;DHT22;14509;47.992;7.848;2022-12-29T01:47:33;18.10;34.70
2439;DHT22;14509;47.992;7.848;2022-12-29T01:49:36;18.00;35.10
2439;DHT22;14509;47.992;7.848;2022-12-29T01:51:40;18.00;35.80
2439;DHT22;14509;47.992;7.848;2022-12-29T01:53:45;18.10;35.20
2439;DHT22;14509;47.992;7.848;2022-12-29T01:55:49;18.40;35.40
2439;DHT22;14509;47.992;7.848;2022-12-29T01:57:55;18.20;35.20
2439;DHT22;14509;47.992;7.848;2022-12-29T02:00:03;18.50;35.20
2439;DHT22;14509;47.992;7.848;2022-12-29T02:02:13;18.10;34.90
2439;DHT22;14509;47.992;7.848;2022-12-29T02:04:16;18.00;34.90
2439;DHT22;14509;47.992;7.848;2022-12-29T02:06:21;18.10;35.20
2439;DHT22;14509;47.992;7.848;2022-12-29T02:08:26;18.00;35.30
2439;DHT22;14509;47.992;7.848;2022-12-29T02:10:31;18.00;35.20
2439;DHT22;14509;47.992;7.848;2022-12-29T02:12:34;18.00;35.30
2439;DHT22;14509;47.992;7.848;2022-12-29T02:14:36;18.50;35.50
2439;DHT22;14509;47.992;7.848;2022-12-29T02:16:51;18.20;35.20
2439;DHT22;14509;47.992;7.848;2022-12-29T02:19:03;18.00;35.50
2439;DHT22;14509;47.992;7.848;2022-12-29T02:21:45;18.00;35.50
2439;DHT22;14509;47.992;7.848;2022-12-29T02:26:52;18.10;35.60
2439;DHT22;14509;47.992;7.848;2022-12-29T02:29:24;18.00;35.90
2439;DHT22;14509;47.992;7.848;2022-12-29T02:31:40;17.90;36.10
2439;DHT22;14509;47.992;7.848;2022-12-29T02:33:56;17.90;36.30
2439;DHT22;14509;47.992;7.848;2022-12-29T02:36:09;17.70;36.60
2439;DHT22;14509;47.992;7.848;2022-12-29T02:38:16;17.60;36.90
2439;DHT22;14509;47.992;7.848;2022-12-29T02:40:25;17.60;37.00
2439;DHT22;14509;47.992;7.848;2022-12-29T02:42:35;17.70;37.10
2439;DHT22;14509;47.992;7.848;2022-12-29T02:44:50;18.00;37.40
2439;DHT22;14509;47.992;7.848;2022-12-29T02:47:00;17.70;37.20
2439;DHT22;14509;47.992;7.848;2022-12-29T02:49:10;17.60;37.30
2439;DHT22;14509;47.992;7.848;2022-12-29T02:51:22;18.20;37.80
2439;DHT22;14509;47.992;7.848;2022-12-29T02:53:26;17.70;37.50
2439;DHT22;14509;47.992;7.848;2022-12-29T02:55:48;17.70;37.50
2439;DHT22;14509;47.992;7.848;2022-12-29T02:58:15;17.60;37.30
2439;DHT22;14509;47.992;7.848;2022-12-29T03:00:18;17.80;37.60
2439;DHT22;14509;47.992;7.848;2022-12-29T03:05:04;17.80;37.60
2439;DHT22;14509;47.992;7.848;2022-12-29T03:07:15;17.80;37.60
2439;DHT22;14509;47.992;7.848;2022-12-29T03:09:23;17.80;37.60
2439;DHT22;14509;47.992;7.848;2022-12-29T03:11:33;17.80;37.60
2439;DHT22;14509;47.992;7.848;2022-12-29T03:13:57;17.90;37.90
2439;DHT22;14509;47.992;7.848;2022-12-29T03:16:22;17.80;38.60
2439;DHT22;14509;47.992;7.848;2022-12-29T03:18:35;17.60;38.00
2439;DHT22;14509;47.992;7.848;2022-12-29T03:20:41;17.50;38.00
2439;DHT22;14509;47.992;7.848;2022-12-29T03:22:48;17.60;38.10
2439;DHT22;14509;47.992;7.848;2022-12-29T03:24:58;17.50;37.90
2439;DHT22;14509;47.992;7.848;2022-12-29T03:27:03;18.00;38.70
2439;DHT22;14509;47.992;7.848;2022-12-29T03:29:13;17.40;38.60
2439;DHT22;14509;47.992;7.848;2022-12-29T03:31:18;17.20;38.50
2439;DHT22;14509;47.992;7.848;2022-12-29T03:33:25;17.40;38.80
2439;DHT22;14509;47.992;7.848;2022-12-29T03:35:34;17.40;38.90
2439;DHT22;14509;47.992;7.848;2022-12-29T03:37:41;17.10;39.30
2439;DHT22;14509;47.992;7.848;2022-12-29T03:39:47;17.10;39.60
2439;DHT22;14509;47.992;7.848;2022-12-29T03:41:53;17.00;39.70
2439;DHT22;14509;47.992;7.848;2022-12-29T03:43:57;16.90;39.90
2439;DHT22;14509;47.992;7.848;2022-12-29T03:45:59;16.80;40.10
2439;DHT22;14509;47.992;7.848;2022-12-29T03:48:01;16.90;40.20
2439;DHT22;14509;47.992;7.848;2022-12-29T03:50:06;16.80;40.10
2439;DHT22;14509;47.992;7.848;2022-12-29T03:52:14;16.70;40.20
2439;DHT22;14509;47.992;7.848;2022-12-29T03:54:18;16.70;40.70
2439;DHT22;14509;47.992;7.848;2022-12-29T03:56:21;16.60;40.80
2439;DHT22;14509;47.992;7.848;2022-12-29T03:58:24;16.60;40.70
2439;DHT22;14509;47.992;7.848;2022-12-29T04:00:35;16.60;40.70
2439;DHT22;14509;47.992;7.848;2022-12-29T04:02:37;16.60;40.80
2439;DHT22;14509;47.992;7.848;2022-12-29T04:04:39;16.70;40.70
2439;DHT22;14509;47.992;7.848;2022-12-29T04:06:42;16.70;40.60
2439;DHT22;14509;47.992;7.848;2022-12-29T04:08:45;16.70;40.40
2439;DHT22;14509;47.992;7.848;2022-12-29T04:10:48;16.80;40.40
2439;DHT22;14509;47.992;7.848;2022-12-29T04:12:51;17.00;40.20
2439;DHT22;14509;47.992;7.848;2022-12-29T04:14:54;17.10;39.80
2439;DHT22;14509;47.992;7.848;2022-12-29T04:16:56;17.30;39.60
2439;DHT22;14509;47.992;7.848;2022-12-29T04:18:58;17.30;39.60
2439;DHT22;14509;47.992;7.848;2022-12-29T04:21:00;17.30;39.50
2439;DHT22;14509;47.992;7.848;2022-12-29T04:23:05;17.20;39.40
2439;DHT22;14509;47.992;7.848;2022-12-29T04:25:10;17.30;39.70
2439;DHT22;14509;47.992;7.848;2022-12-29T04:27:12;17.30;39.60
2439;DHT22;14509;47.992;7.848;2022-12-29T04:29:40;17.20;39.60
2439;DHT22;14509;47.992;7.848;2022-12-29T04:31:52;17.20;39.80
2439;DHT22;14509;47.992;7.848;2022-12-29T04:33:54;17.20;39.90
2439;DHT22;14509;47.992;7.848;2022-12-29T04:35:58;17.10;39.80
2439;DHT22;14509;47.992;7.848;2022-12-29T04:38:00;17.20;39.90
2439;DHT22;14509;47.992;7.848;2022-12-29T04:40:03;17.70;40.60
2439;DHT22;14509;47.992;7.848;2022-12-29T04:42:07;17.00;40.30
2439;DHT22;14509;47.992;7.848;2022-12-29T04:44:09;17.00;40.10
2439;DHT22;14509;47.992;7.848;2022-12-29T04:46:30;17.00;40.20
2439;DHT22;14509;47.992;7.848;2022-12-29T04:48:39;16.90;40.20
2439;DHT22;14509;47.992;7.848;2022-12-29T04:51:18;17.00;40.30
2439;DHT22;14509;47.992;7.848;2022-12-29T04:53:20;17.00;40.20
2439;DHT22;14509;47.992;7.848;2022-12-29T04:55:22;17.00;40.20
2439;DHT22;14509;47.992;7.848;2022-12-29T04:57:26;16.90;40.20
2439;DHT22;14509;47.992;7.848;2022-12-29T04:59:31;16.80;40.20
2439;DHT22;14509;47.992;7.848;2022-12-29T05:01:36;16.80;40.40
2439;DHT22;14509;47.992;7.848;2022-12-29T05:03:38;16.90;40.50
2439;DHT22;14509;47.992;7.848;2022-12-29T05:05:41;16.90;40.20
2439;DHT22;14509;47.992;7.848;2022-12-29T05:07:43;17.00;40.20
2439;DHT22;14509;47.992;7.848;2022-12-29T05:09:45;17.00;40.00
2439;DHT22;14509;47.992;7.848;2022-12-29T05:11:47;17.10;39.90
2439;DHT22;14509;47.992;7.848;2022-12-29T05:13:50;17.10;39.80
2439;DHT22;14509;47.992;7.848;2022-12-29T05:15:53;17.10;39.70
2439;DHT22;14509;47.992;7.848;2022-12-29T05:17:57;17.30;39.60
2439;DHT22;14509;47.992;7.848;2022-12-29T05:19:59;17.40;39.20
2439;DHT22;14509;47.992;7.848;2022-12-29T05:22:01;17.40;38.80
2439;DHT22;14509;47.992;7.848;2022-12-29T05:24:05;17.40;38.70
2439;DHT22;14509;47.992;7.848;2022-12-29T05:26:07;17.60;38.70
2439;DHT22;14509;47.992;7.848;2022-12-29T05:28:22;17.70;38.30
2439;DHT22;14509;47.992;7.848;2022-12-29T05:30:33;17.70;38.30
2439;DHT22;14509;47.992;7.848;2022-12-29T05:32:35;17.70;38.00
2439;DHT22;14509;47.992;7.848;2022-12-29T05:34:37;17.70;37.80
2439;DHT22;14509;47.992;7.848;2022-12-29T05:36:39;18.00;38.10
2439;DHT22;14509;47.992;7.848;2022-12-29T05:38:43;17.70;37.80
2439;DHT22;14509;47.992;7.848;2022-12-29T05:40:46;17.60;37.90
2439;DHT22;14509;47.992;7.848;2022-12-29T05:43:03;17.60;37.80
2439;DHT22;14509;47.992;7.848;2022-12-29T05:45:24;17.60;37.70
2439;DHT22;14509;47.992;7.848;2022-12-29T05:47:47;17.60;37.80
2439;DHT22;14509;47.992;7.848;2022-12-29T05:50:12;17.80;37.80
2439;DHT22;14509;47.992;7.848;2022-12-29T05:52:33;18.30;38.20
2439;DHT22;14509;47.992;7.848;2022-12-29T05:54:35;17.80;37.60
2439;DHT22;14509;47.992;7.848;2022-12-29T05:56:43;18.20;37.50
2439;DHT22;14509;47.992;7.848;2022-12-29T05:58:45;17.90;37.00
2439;DHT22;14509;47.992;7.848;2022-12-29T06:00:47;18.10;37.20
2439;DHT22;14509;47.992;7.848;2022-12-29T06:02:50;18.10;36.80
2439;DHT22;14509;47.992;7.848;2022-12-29T06:04:53;18.00;36.60
2439;DHT22;14509;47.992;7.848;2022-12-29T06:06:56;18.50;37.00
2439;DHT22;14509;47.992;7.848;2022-12-29T06:09:18;18.10;36.60
2439;DHT22;14509;47.992;7.848;2022-12-29T06:11:20;18.20;36.50
2439;DHT22;14509;47.992;7.848;2022-12-29T06:13:32;18.00;36.40
2439;DHT22;14509;47.992;7.848;2022-12-29T06:15:34;18.10;36.60
2439;DHT22;14509;47.992;7.848;2022-12-29T06:17:40;18.00;36.60
2439;DHT22;14509;47.992;7.848;2022-12-29T06:19:43;17.90;36.60
2439;DHT22;14509;47.992;7.848;2022-12-29T06:21:46;18.40;37.20
2439;DHT22;14509;47.992;7.848;2022-12-29T06:23:48;17.90;36.90
2439;DHT22;14509;47.992;7.848;2022-12-29T06:25:50;17.80;36.70
2439;DHT22;14509;47.992;7.848;2022-12-29T06:27:52;17.80;36.80
2439;DHT22;14509;47.992;7.848;2022-12-29T06:29:54;17.60;36.90
2439;DHT22;14509;47.992;7.848;2022-12-29T06:31:57;17.50;36.90
2439;DHT22;14509;47.992;7.848;2022-12-29T06:34:00;17.60;37.20
2439;DHT22;14509;47.992;7.848;2022-12-29T06:36:05;17.50;37.10
2439;DHT22;14509;47.992;7.848;2022-12-29T06:38:07;17.50;37.20
2439;DHT22;14509;47.992;7.848;2022-12-29T06:40:10;18.20;37.50
2439;DHT22;14509;47.992;7.848;2022-12-29T06:42:31;17.50;37.00
2439;DHT22;14509;47.992;7.848;2022-12-29T06:44:51;17.50;36.90
2439;DHT22;14509;47.992;7.848;2022-12-29T06:46:54;17.50;37.10
2439;DHT22;14509;47.992;7.848;2022-12-29T06:48:55;17.60;37.10
2439;DHT22;14509;47.992;7.848;2022-12-29T06:50:58;17.50;36.80
2439;DHT22;14509;47.992;7.848;2022-12-29T06:53:01;17.50;37.00
2439;DHT22;14509;47.992;7.848;2022-12-29T06:55:04;17.40;36.90
2439;DHT22;14509;47.992;7.848;2022-12-29T06:57:06;17.50;37.30
2439;DHT22;14509;47.992;7.848;2022-12-29T06:59:09;17.50;36.80
2439;DHT22;14509;47.992;7.848;2022-12-29T07:01:11;17.60;37.00
2439;DHT22;14509;47.992;7.848;2022-12-29T07:03:13;17.60;36.80
2439;DHT22;14509;47.992;7.848;2022-12-29T07:05:15;17.70;36.70
2439;DHT22;14509;47.992;7.848;2022-12-29T07:07:17;17.50;36.30
2439;DHT22;14509;47.992;7.848;2022-12-29T07:09:20;17.80;36.40
2439;DHT22;14509;47.992;7.848;2022-12-29T07:11:23;17.90;36.20
2439;DHT22;14509;47.992;7.848;2022-12-29T07:13:25;18.00;36.20
2439;DHT22;14509;47.992;7.848;2022-12-29T07:15:27;18.10;35.80
2439;DHT22;14509;47.992;7.848;2022-12-29T07:17:29;18.10;35.60
2439;DHT22;14509;47.992;7.848;2022-12-29T07:19:31;18.30;35.50
2439;DHT22;14509;47.992;7.848;2022-12-29T07:21:33;18.30;35.30
2439;DHT22;14509;47.992;7.848;2022-12-29T07:23:35;18.40;35.30
2439;DHT22;14509;47.992;7.848;2022-12-29T07:25:38;18.90;35.80
2439;DHT22;14509;47.992;7.848;2022-12-29T07:27:41;18.50;35.30
2439;DHT22;14509;47.992;7.848;2022-12-29T07:29:43;18.50;35.40
2439;DHT22;14509;47.992;7.848;2022-12-29T07:31:46;18.40;35.40
2439;DHT22;14509;47.992;7.848;2022-12-29T07:33:48;18.50;35.30
2439;DHT22;14509;47.992;7.848;2022-12-29T07:35:50;18.50;35.40
2439;DHT22;14509;47.992;7.848;2022-12-29T07:37:52;18.50;35.50
2439;DHT22;14509;47.992;7.848;2022-12-29T07:39:54;18.30;35.60
2439;DHT22;14509;47.992;7.848;2022-12-29T07:41:58;18.40;35.70
2439;DHT22;14509;47.992;7.848;2022-12-29T07:44:00;18.50;35.50
2439;DHT22;14509;47.992;7.848;2022-12-29T07:46:21;18.60;35.40
2439;DHT22;14509;47.992;7.848;2022-12-29T07:48:23;18.50;35.50
2439;DHT22;14509;47.992;7.848;2022-12-29T07:50:25;18.70;35.60
2439;DHT22;14509;47.992;7.848;2022-12-29T07:52:27;18.70;35.30
2439;DHT22;14509;47.992;7.848;2022-12-29T07:54:29;18.70;35.60
2439;DHT22;14509;47.992;7.848;2022-12-29T07:56:31;19.20;35.80
2439;DHT22;14509;47.992;7.848;2022-12-29T07:58:35;18.60;35.70
2439;DHT22;14509;47.992;7.848;2022-12-29T08:00:37;18.70;35.60
2439;DHT22;14509;47.992;7.848;2022-12-29T08:02:40;18.80;35.60
2439;DHT22;14509;47.992;7.848;2022-12-29T08:04:42;18.70;35.40
2439;DHT22;14509;47.992;7.848;2022-12-29T08:06:44;18.70;35.60
2439;DHT22;14509;47.992;7.848;2022-12-29T08:08:46;18.50;35.40
2439;DHT22;14509;47.992;7.848;2022-12-29T08:10:48;18.60;35.80
2439;DHT22;14509;47.992;7.848;2022-12-29T08:12:50;18.50;35.70
2439;DHT22;14509;47.992;7.848;2022-12-29T08:14:54;18.40;35.80
2439;DHT22;14509;47.992;7.848;2022-12-29T08:16:56;18.50;36.00
2439;DHT22;14509;47.992;7.848;2022-12-29T08:18:58;18.50;35.80
2439;DHT22;14509;47.992;7.848;2022-12-29T08:21:02;18.50;35.90
2439;DHT22;14509;47.992;7.848;2022-12-29T08:23:04;18.50;35.90
2439;DHT22;14509;47.992;7.848;2022-12-29T08:25:07;18.40;36.20
2439;DHT22;14509;47.992;7.848;2022-12-29T08:27:09;18.50;36.30
2439;DHT22;14509;47.992;7.848;2022-12-29T08:29:11;18.60;36.10
2439;DHT22;14509;47.992;7.848;2022-12-29T08:31:16;18.70;36.20
2439;DHT22;14509;47.992;7.848;2022-12-29T08:33:18;18.80;36.40
2439;DHT22;14509;47.992;7.848;2022-12-29T08:35:21;18.90;36.60
2439;DHT22;14509;47.992;7.848;2022-12-29T08:37:23;18.70;36.80
2439;DHT22;14509;47.992;7.848;2022-12-29T08:39:25;18.70;36.80
2439;DHT22;14509;47.992;7.848;2022-12-29T08:41:27;18.70;37.20
2439;DHT22;14509;47.992;7.848;2022-12-29T08:43:30;18.70;37.40
2439;DHT22;14509;47.992;7.848;2022-12-29T08:45:32;18.50;37.60
2439;DHT22;14509;47.992;7.848;2022-12-29T08:47:36;18.70;38.00
2439;DHT22;14509;47.992;7.848;2022-12-29T08:49:42;18.80;38.20
2439;DHT22;14509;47.992;7.848;2022-12-29T08:51:45;18.70;38.10
2439;DHT22;14509;47.992;7.848;2022-12-29T08:53:46;19.00;38.40
2439;DHT22;14509;47.992;7.848;2022-12-29T08:55:56;18.80;38.00
2439;DHT22;14509;47.992;7.848;2022-12-29T08:57:58;18.80;38.00
2439;DHT22;14509;47.992;7.848;2022-12-29T09:00:01;18.80;37.80
2439;DHT22;14509;47.992;7.848;2022-12-29T09:02:03;18.80;37.80
2439;DHT22;14509;47.992;7.848;2022-12-29T09:04:06;18.90;38.40
2439;DHT22;14509;47.992;7.848;2022-12-29T09:06:08;18.80;37.50
2439;DHT22;14509;47.992;7.848;2022-12-29T09:08:10;18.70;37.90
2439;DHT22;14509;47.992;7.848;2022-12-29T09:10:12;18.60;38.20
2439;DHT22;14509;47.992;7.848;2022-12-29T09:12:15;18.70;38.30
2439;DHT22;14509;47.992;7.848;2022-12-29T09:14:17;18.70;38.40
2439;DHT22;14509;47.992;7.848;2022-12-29T09:16:21;18.70;38.40
2439;DHT22;14509;47.992;7.848;2022-12-29T09:18:24;18.80;38.50
2439;DHT22;14509;47.992;7.848;2022-12-29T09:20:26;18.70;38.10
2439;DHT22;14509;47.992;7.848;2022-12-29T09:22:28;19.30;38.50
2439;DHT22;14509;47.992;7.848;2022-12-29T09:24:30;18.80;38.30
2439;DHT22;14509;47.992;7.848;2022-12-29T09:26:32;18.80;38.50
2439;DHT22;14509;47.992;7.848;2022-12-29T09:28:34;18.80;38.50
2439;DHT22;14509;47.992;7.848;2022-12-29T09:30:37;19.00;38.70
2439;DHT22;14509;47.992;7.848;2022-12-29T09:32:40;19.00;38.50
2439;DHT22;14509;47.992;7.848;2022-12-29T09:34:42;19.00;38.60
2439;DHT22;14509;47.992;7.848;2022-12-29T09:36:45;18.90;38.60
2439;DHT22;14509;47.992;7.848;2022-12-29T09:38:47;18.80;38.90
2439;DHT22;14509;47.992;7.848;2022-12-29T09:40:51;18.90;39.30
2439;DHT22;14509;47.992;7.848;2022-12-29T09:43:12;18.80;39.80
2439;DHT22;14509;47.992;7.848;2022-12-29T09:45:20;18.90;40.20
2439;DHT22;14509;47.992;7.848;2022-12-29T09:47:25;19.00;40.50
2439;DHT22;14509;47.992;7.848;2022-12-29T09:49:39;19.00;41.00
2439;DHT22;14509;47.992;7.848;2022-12-29T09:51:46;18.80;41.90
2439;DHT22;14509;47.992;7.848;2022-12-29T09:53:53;18.80;42.30
2439;DHT22;14509;47.992;7.848;2022-12-29T09:56:00;19.20;42.90
2439;DHT22;14509;47.992;7.848;2022-12-29T09:58:06;19.20;43.10
2439;DHT22;14509;47.992;7.848;2022-12-29T10:00:15;18.80;42.50
2439;DHT22;14509;47.992;7.848;2022-12-29T10:02:31;18.80;42.30
2439;DHT22;14509;47.992;7.848;2022-12-29T10:04:34;18.80;42.40
2439;DHT22;14509;47.992;7.848;2022-12-29T10:06:42;18.90;42.20
2439;DHT22;14509;47.992;7.848;2022-12-29T10:08:52;18.90;42.20
2439;DHT22;14509;47.992;7.848;2022-12-29T10:10:58;18.90;42.40
2439;DHT22;14509;47.992;7.848;2022-12-29T10:13:21;18.90;42.50
2439;DHT22;14509;47.992;7.848;2022-12-29T10:15:46;19.00;42.60
2439;DHT22;14509;47.992;7.848;2022-12-29T10:17:58;18.80;42.50
2439;DHT22;14509;47.992;7.848;2022-12-29T10:20:19;18.70;42.50
2439;DHT22;14509;47.992;7.848;2022-12-29T10:22:38;18.60;42.80
2439;DHT22;14509;47.992;7.848;2022-12-29T10:24:49;18.70;43.00
2439;DHT22;14509;47.992;7.848;2022-12-29T10:26:52;18.70;43.00
2439;DHT22;14509;47.992;7.848;2022-12-29T10:28:57;18.70;43.30
2439;DHT22;14509;47.992;7.848;2022-12-29T10:31:05;18.60;43.40
2439;DHT22;14509;47.992;7.848;2022-12-29T10:33:12;18.40;43.40
2439;DHT22;14509;47.992;7.848;2022-12-29T10:35:21;18.30;44.20
2439;DHT22;14509;47.992;7.848;2022-12-29T10:37:32;18.30;44.00
2439;DHT22;14509;47.992;7.848;2022-12-29T10:39:41;18.30;44.50
2439;DHT22;14509;47.992;7.848;2022-12-29T10:41:49;18.30;44.30
2439;DHT22;14509;47.992;7.848;2022-12-29T10:43:54;18.30;44.10
2439;DHT22;14509;47.992;7.848;2022-12-29T10:46:02;18.30;44.10
2439;DHT22;14509;47.992;7.848;2022-12-29T10:48:09;18.40;44.10
2439;DHT22;14509;47.992;7.848;2022-12-29T10:50:12;18.30;44.40
2439;DHT22;14509;47.992;7.848;2022-12-29T10:52:17;18.90;45.40
2439;DHT22;14509;47.992;7.848;2022-12-29T10:54:25;18.10;45.10
2439;DHT22;14509;47.992;7.848;2022-12-29T10:56:32;18.20;45.30
2439;DHT22;14509;47.992;7.848;2022-12-29T10:58:37;18.20;45.00
2439;DHT22;14509;47.992;7.848;2022-12-29T11:00:54;18.80;45.10
2439;DHT22;14509;47.992;7.848;2022-12-29T11:03:39;18.20;44.40
2439;DHT22;14509;47.992;7.848;2022-12-29T11:05:46;18.30;44.60
2439;DHT22;14509;47.992;7.848;2022-12-29T11:07:56;18.30;44.00
2439;DHT22;14509;47.992;7.848;2022-12-29T11:10:18;18.40;44.00
2439;DHT22;14509;47.992;7.848;2022-12-29T11:12:24;18.50;43.60
2439;DHT22;14509;47.992;7.848;2022-12-29T11:14:30;18.70;43.70
2439;DHT22;14509;47.992;7.848;2022-12-29T11:16:34;18.80;43.90
2439;DHT22;14509;47.992;7.848;2022-12-29T11:18:38;19.50;44.40
2439;DHT22;14509;47.992;7.848;2022-12-29T11:20:41;19.00;43.70
2439;DHT22;14509;47.992;7.848;2022-12-29T11:22:44;19.10;44.10
2439;DHT22;14509;47.992;7.848;2022-12-29T11:24:47;19.60;44.60
2439;DHT22;14509;47.992;7.848;2022-12-29T11:26:51;19.10;44.30
2439;DHT22;14509;47.992;7.848;2022-12-29T11:29:23;19.70;44.50
2439;DHT22;14509;47.992;7.848;2022-12-29T11:31:26;19.10;43.10
2439;DHT22;14509;47.992;7.848;2022-12-29T11:33:28;19.10;42.80
2439;DHT22;14509;47.992;7.848;2022-12-29T11:35:33;19.20;42.50
2439;DHT22;14509;47.992;7.848;2022-12-29T11:37:38;19.10;42.20
2439;DHT22;14509;47.992;7.848;2022-12-29T11:39:43;19.20;42.30
2439;DHT22;14509;47.992;7.848;2022-12-29T11:41:51;19.20;42.20
2439;DHT22;14509;47.992;7.848;2022-12-29T11:43:56;19.30;42.10
2439;DHT22;14509;47.992;7.848;2022-12-29T11:46:00;19.30;41.90
2439;DHT22;14509;47.992;7.848;2022-12-29T11:48:33;19.20;41.80
2439;DHT22;14509;47.992;7.848;2022-12-29T11:51:03;19.60;42.20
2439;DHT22;14509;47.992;7.848;2022-12-29T11:53:46;19.40;41.70
2439;DHT22;14509;47.992;7.848;2022-12-29T11:55:54;19.30;42.00
2439;DHT22;14509;47.992;7.848;2022-12-29T11:58:04;19.40;41.60
2439;DHT22;14509;47.992;7.848;2022-12-29T12:00:15;19.50;41.70
2439;DHT22;14509;47.992;7.848;2022-12-29T12:02:33;19.50;41.50
2439;DHT22;14509;47.992;7.848;2022-12-29T12:04:38;19.60;41.50
2439;DHT22;14509;47.992;7.848;2022-12-29T12:07:00;19.60;41.30
2439;DHT22;14509;47.992;7.848;2022-12-29T13:32:23;18.80;43.60
2439;DHT22;14509;47.992;7.848;2022-12-29T13:45:59;18.10;45.20
2439;DHT22;14509;47.992;7.848;2022-12-29T13:48:08;18.10;45.20
2439;DHT22;14509;47.992;7.848;2022-12-29T13:50:15;17.80;45.60
2439;DHT22;14509;47.992;7.848;2022-12-29T13:52:21;17.60;46.00
2439;DHT22;14509;47.992;7.848;2022-12-29T13:54:35;17.50;46.40
2439;DHT22;14509;47.992;7.848;2022-12-29T13:56:40;17.60;46.70
2439;DHT22;14509;47.992;7.848;2022-12-29T13:58:54;17.70;46.50
2439;DHT22;14509;47.992;7.848;2022-12-29T14:01:03;17.80;46.40
2439;DHT22;14509;47.992;7.848;2022-12-29T14:03:24;18.00;46.90
2439;DHT22;14509;47.992;7.848;2022-12-29T14:05:34;17.60;47.10
2439;DHT22;14509;47.992;7.848;2022-12-29T14:07:38;17.70;46.90
2439;DHT22;14509;47.992;7.848;2022-12-29T14:09:45;18.40;47.50
2439;DHT22;14509;47.992;7.848;2022-12-29T14:11:48;17.90;47.10
2439;DHT22;14509;47.992;7.848;2022-12-29T14:13:50;17.90;47.30
2439;DHT22;14509;47.992;7.848;2022-12-29T14:15:54;18.00;47.40
2439;DHT22;14509;47.992;7.848;2022-12-29T14:18:05;17.80;47.30
2439;DHT22;14509;47.992;7.848;2022-12-29T14:20:21;18.40;47.80
2439;DHT22;14509;47.992;7.848;2022-12-29T14:22:26;17.90;46.90
2439;DHT22;14509;47.992;7.848;2022-12-29T14:24:41;18.00;46.70
2439;DHT22;14509;47.992;7.848;2022-12-29T14:26:44;18.30;47.40
2439;DHT22;14509;47.992;7.848;2022-12-29T14:28:47;17.90;46.90
2439;DHT22;14509;47.992;7.848;2022-12-29T14:30:56;17.70;46.90
2439;DHT22;14509;47.992;7.848;2022-12-29T14:33:03;18.00;46.80
2439;DHT22;14509;47.992;7.848;2022-12-29T14:37:46;17.80;47.00
2439;DHT22;14509;47.992;7.848;2022-12-29T14:39:48;17.70;47.00
2439;DHT22;14509;47.992;7.848;2022-12-29T14:41:59;17.70;46.90
2439;DHT22;14509;47.992;7.848;2022-12-29T14:44:14;17.60;47.10
2439;DHT22;14509;47.992;7.848;2022-12-29T14:46:19;17.70;47.20
2439;DHT22;14509;47.992;7.848;2022-12-29T14:48:30;17.70;46.80
2439;DHT22;14509;47.992;7.848;2022-12-29T14:50:38;18.30;47.40
2439;DHT22;14509;47.992;7.848;2022-12-29T14:52:48;17.70;46.70
2439;DHT22;14509;47.992;7.848;2022-12-29T14:54:57;17.70;46.70
2439;DHT22;14509;47.992;7.848;2022-12-29T14:57:04;17.20;46.40
2439;DHT22;14509;47.992;7.848;2022-12-29T14:59:10;17.70;46.80
2439;DHT22;14509;47.992;7.848;2022-12-29T15:01:19;18.10;47.20
2439;DHT22;14509;47.992;7.848;2022-12-29T15:03:23;17.70;47.60
2439;DHT22;14509;47.992;7.848;2022-12-29T15:05:32;17.80;46.90
2439;DHT22;14509;47.992;7.848;2022-12-29T15:07:35;18.20;47.10
2439;DHT22;14509;47.992;7.848;2022-12-29T15:09:50;18.00;46.80
2439;DHT22;14509;47.992;7.848;2022-12-29T15:11:59;17.90;48.30
2439;DHT22;14509;47.992;7.848;2022-12-29T15:14:28;17.80;48.90
2439;DHT22;14509;47.992;7.848;2022-12-29T15:16:32;17.40;49.50
2439;DHT22;14509;47.992;7.848;2022-12-29T15:18:36;17.20;49.90